Time;durP1;ratioP1;P1;durP2;ratioP2;P2;SDS_P1;SDS_P2;PMS_P1;PMS_P2;Temp;Humidity;BMP_temperature;BMP_pressure;BME280_temperature;BME280_humidity;BME280_pressure;Samples;Min_cycle;Max_cycle;Signal;HPM_P1;HPM_P2
2021/11/07 00:05:06;;;;;;;10.10;4.43;;;9.10;99.90;;;;;;5039886;28;20292;-96
2021/11/07 00:11:02;;;;;;;7.20;4.20;;;9.10;99.90;;;;;;4950980;29;20200;-96
2021/11/07 00:13:35;;;;;;;5.97;3.97;;;9.10;99.90;;;;;;5040178;28;20194;-95
2021/11/07 00:16:06;;;;;;;8.20;4.07;;;9.10;99.90;;;;;;5022186;28;20167;-96
2021/11/07 00:18:46;;;;;;;7.27;4.40;;;9.10;99.90;;;;;;5022699;28;20182;-96
2021/11/07 00:21:20;;;;;;;6.53;4.20;;;9.10;99.90;;;;;;5024880;28;20293;-95
2021/11/07 00:28:55;;;;;;;6.30;4.03;;;9.10;99.90;;;;;;5042903;28;20233;-96
2021/11/07 00:31:48;;;;;;;10.57;4.60;;;9.10;99.90;;;;;;5025108;28;20181;-96
2021/11/07 00:37:03;;;;;;;7.20;4.23;;;9.10;99.90;;;;;;5040509;28;20159;-95
2021/11/07 00:39:47;;;;;;;5.03;3.87;;;9.10;99.90;;;;;;5022707;28;20204;-96
2021/11/07 00:47:43;;;;;;;5.63;4.07;;;9.10;99.90;;;;;;5015854;28;20178;-96
2021/11/07 00:50:13;;;;;;;6.10;4.20;;;9.10;99.90;;;;;;5021790;28;20201;-96
2021/11/07 00:58:40;;;;;;;7.30;4.20;;;9.10;99.90;;;;;;4942621;28;20215;-96
2021/11/07 01:01:14;;;;;;;6.97;4.30;;;9.10;99.90;;;;;;5017072;28;20260;-96
2021/11/07 01:03:41;;;;;;;7.93;3.87;;;9.20;99.90;;;;;;5044763;28;20288;-96
2021/11/07 01:06:35;;;;;;;6.30;4.03;;;9.10;99.90;;;;;;5042366;28;20213;-96
2021/11/07 01:09:01;;;;;;;7.20;4.30;;;9.10;99.90;;;;;;5043813;28;20243;-95
2021/11/07 01:11:27;;;;;;;9.80;4.30;;;9.10;99.90;;;;;;5043099;28;20181;-94
2021/11/07 01:13:53;;;;;;;5.17;3.80;;;9.10;99.90;;;;;;5039974;28;20265;-95
2021/11/07 01:16:21;;;;;;;5.53;4.30;;;9.10;99.90;;;;;;5040927;28;20181;-96
2021/11/07 01:18:52;;;;;;;6.43;4.30;;;9.10;99.90;;;;;;5042064;28;20178;-96
2021/11/07 01:21:21;;;;;;;7.23;4.37;;;9.10;99.90;;;;;;5041307;28;20174;-96
2021/11/07 01:24:00;;;;;;;6.33;4.30;;;9.10;99.90;;;;;;5041845;28;20183;-95
2021/11/07 01:26:44;;;;;;;5.50;4.10;;;9.10;99.90;;;;;;5041114;28;20170;-95
2021/11/07 01:29:14;;;;;;;7.00;4.40;;;9.10;99.90;;;;;;5020972;28;20210;-95
2021/11/07 01:31:48;;;;;;;5.50;4.10;;;9.10;99.90;;;;;;5038799;28;20174;-95
2021/11/07 01:36:58;;;;;;;6.03;4.20;;;9.00;99.90;;;;;;5037523;28;20183;-96
2021/11/07 01:39:47;;;;;;;8.90;4.27;;;9.00;99.90;;;;;;5020275;28;20179;-96
2021/11/07 01:42:24;;;;;;;10.37;4.10;;;9.00;99.90;;;;;;5020114;28;20179;-95
2021/11/07 01:44:57;;;;;;;7.83;4.30;;;9.00;99.90;;;;;;5019976;28;20178;-96
2021/11/07 01:47:43;;;;;;;5.07;4.10;;;9.00;99.90;;;;;;5019346;28;20181;-96
2021/11/07 01:50:09;;;;;;;5.83;4.00;;;9.00;99.90;;;;;;5019436;28;20202;-95
2021/11/07 01:52:42;;;;;;;5.47;3.40;;;9.00;99.90;;;;;;5020516;28;20509;-96
2021/11/07 01:55:08;;;;;;;6.77;4.00;;;9.00;99.90;;;;;;5038205;28;20159;-96
2021/11/07 01:57:39;;;;;;;6.10;4.07;;;9.00;99.90;;;;;;5030348;28;20527;-96
2021/11/07 02:00:23;;;;;;;6.67;3.80;;;9.00;99.90;;;;;;5039895;28;20257;-95
2021/11/07 02:02:49;;;;;;;5.90;3.60;;;9.00;99.90;;;;;;5040223;28;20683;-95
2021/11/07 02:05:16;;;;;;;4.97;3.73;;;9.00;99.90;;;;;;5039763;28;20178;-96
2021/11/07 02:07:44;;;;;;;7.60;4.13;;;9.00;99.90;;;;;;5040162;28;20173;-94
2021/11/07 02:10:13;;;;;;;5.63;3.47;;;9.00;99.90;;;;;;5038421;28;20197;-96
2021/11/07 02:12:40;;;;;;;5.40;3.30;;;9.00;99.90;;;;;;5038622;28;20174;-96
2021/11/07 02:15:16;;;;;;;7.50;3.90;;;9.00;99.90;;;;;;5038707;28;20182;-94
2021/11/07 02:17:44;;;;;;;4.73;3.77;;;9.00;99.90;;;;;;5039413;28;20169;-95
2021/11/07 02:20:22;;;;;;;7.40;4.37;;;9.00;99.90;;;;;;5039028;28;20205;-96
2021/11/07 02:22:48;;;;;;;5.80;3.87;;;9.00;99.90;;;;;;5038850;28;20178;-95
2021/11/07 02:25:14;;;;;;;6.60;4.00;;;8.90;99.90;;;;;;5039297;28;20233;-95
2021/11/07 02:27:40;;;;;;;5.63;4.13;;;8.90;99.90;;;;;;5027765;28;20209;-95
2021/11/07 02:30:10;;;;;;;7.17;4.27;;;8.90;99.90;;;;;;5018556;28;20179;-95
2021/11/07 02:32:36;;;;;;;8.23;4.83;;;8.80;99.90;;;;;;5018369;28;20213;-95
2021/11/07 02:35:02;;;;;;;6.40;4.50;;;8.80;99.90;;;;;;5018628;28;20674;-95
2021/11/07 02:37:35;;;;;;;7.97;4.13;;;8.70;99.90;;;;;;5019201;28;20204;-95
2021/11/07 02:40:06;;;;;;;9.33;4.90;;;8.70;99.90;;;;;;5018572;28;20648;-95
2021/11/07 02:42:32;;;;;;;8.67;4.93;;;8.70;99.90;;;;;;5019555;28;20269;-96
2021/11/07 02:44:58;;;;;;;6.40;4.47;;;8.60;99.90;;;;;;5022876;28;20587;-96
2021/11/07 03:19:22;;;;;;;8.83;4.00;;;8.50;99.90;;;;;;5352115;22;20225;-96
2021/11/07 03:21:51;;;;;;;6.33;3.93;;;8.50;99.90;;;;;;5047389;28;20177;-96
2021/11/07 03:24:24;;;;;;;7.07;3.80;;;8.50;99.90;;;;;;5023606;28;20182;-96
2021/11/07 03:26:50;;;;;;;4.27;3.57;;;8.50;99.90;;;;;;5011550;28;20605;-96
2021/11/07 03:29:21;;;;;;;5.17;3.83;;;8.60;99.90;;;;;;5023281;28;20640;-96
2021/11/07 03:31:56;;;;;;;6.40;3.77;;;8.60;99.90;;;;;;5042209;28;20178;-96
2021/11/07 03:34:29;;;;;;;7.87;4.33;;;8.60;99.90;;;;;;5042346;28;20177;-96
2021/11/07 03:36:58;;;;;;;4.80;3.90;;;8.50;99.90;;;;;;5041974;28;20181;-96
2021/11/07 03:39:33;;;;;;;7.27;4.27;;;8.50;99.90;;;;;;5042704;28;20178;-96
2021/11/07 03:42:02;;;;;;;7.47;4.10;;;8.50;99.90;;;;;;5041643;28;20173;-96
2021/11/07 03:44:28;;;;;;;6.60;4.00;;;8.50;99.90;;;;;;5041016;28;20178;-96
2021/11/07 03:46:57;;;;;;;6.57;4.17;;;8.50;99.90;;;;;;5041452;28;20209;-95
2021/11/07 03:49:25;;;;;;;5.97;3.93;;;8.50;99.90;;;;;;5032165;28;20272;-96
2021/11/07 03:51:51;;;;;;;9.43;4.10;;;8.50;99.90;;;;;;5022175;28;20537;-96
2021/11/07 03:54:18;;;;;;;5.63;3.93;;;8.50;99.90;;;;;;5021483;28;20190;-96
2021/11/07 03:56:44;;;;;;;6.93;3.73;;;8.50;99.90;;;;;;5021086;28;20179;-96
2021/11/07 03:59:10;;;;;;;7.40;3.90;;;8.40;99.90;;;;;;5022393;28;20201;-96
2021/11/07 04:01:36;;;;;;;6.90;3.90;;;8.40;99.90;;;;;;5040724;28;20174;-96
2021/11/07 04:04:04;;;;;;;5.97;3.93;;;8.50;99.90;;;;;;5041597;28;20186;-96
2021/11/07 04:06:31;;;;;;;6.67;3.70;;;8.50;99.90;;;;;;5042459;28;20170;-96
2021/11/07 04:08:56;;;;;;;6.33;3.50;;;8.50;99.90;;;;;;5040809;28;20201;-96
2021/11/07 04:11:24;;;;;;;5.97;3.53;;;8.50;99.90;;;;;;5042165;28;20209;-96
2021/11/07 04:13:50;;;;;;;5.17;3.80;;;8.50;99.90;;;;;;5043459;28;20193;-96
2021/11/07 04:16:16;;;;;;;7.40;3.20;;;8.50;99.90;;;;;;5041272;28;20177;-96
2021/11/07 04:18:45;;;;;;;4.60;2.87;;;8.50;99.90;;;;;;5040713;28;20557;-96
2021/11/07 04:21:13;;;;;;;4.03;3.20;;;8.50;99.90;;;;;;5041113;28;20586;-96
2021/11/07 04:23:40;;;;;;;4.97;3.20;;;8.50;99.90;;;;;;5042501;28;20188;-96
2021/11/07 04:26:06;;;;;;;3.80;2.90;;;8.60;99.90;;;;;;5045035;28;20219;-96
2021/11/07 04:28:32;;;;;;;3.70;2.60;;;8.60;99.90;;;;;;5043514;28;20209;-96
2021/11/07 04:31:16;;;;;;;4.23;2.50;;;8.60;99.90;;;;;;5026627;28;20186;-96
2021/11/07 04:33:42;;;;;;;5.60;2.70;;;8.60;99.90;;;;;;5043795;28;20228;-96
2021/11/07 04:36:09;;;;;;;5.73;2.20;;;8.60;99.90;;;;;;5044502;28;20182;-96
2021/11/07 04:38:36;;;;;;;2.83;1.97;;;8.60;99.90;;;;;;5043616;28;20182;-95
2021/11/07 04:41:18;;;;;;;3.23;2.20;;;8.70;99.90;;;;;;5060104;28;20231;-96
2021/11/07 04:43:47;;;;;;;5.50;2.10;;;8.70;99.90;;;;;;5061549;28;20170;-96
2021/11/07 04:46:17;;;;;;;3.20;1.70;;;8.70;99.90;;;;;;5042927;28;20185;-96
2021/11/07 04:48:43;;;;;;;3.23;1.43;;;8.80;99.90;;;;;;5045070;28;20747;-96
2021/11/07 04:51:09;;;;;;;1.77;1.43;;;8.80;99.90;;;;;;5044931;28;20186;-96
2021/11/07 04:53:35;;;;;;;2.00;1.10;;;8.80;99.90;;;;;;5042600;28;20249;-96
2021/11/07 04:56:03;;;;;;;1.40;1.20;;;8.90;99.90;;;;;;5041804;28;20193;-96
2021/11/07 04:58:28;;;;;;;2.30;1.03;;;8.90;99.90;;;;;;5043282;28;20232;-96
2021/11/07 05:01:00;;;;;;;3.23;1.07;;;9.00;99.90;;;;;;5043782;28;20162;-96
2021/11/07 05:03:25;;;;;;;1.87;0.90;;;9.00;99.90;;;;;;5044933;28;20177;-96
2021/11/07 05:05:51;;;;;;;1.30;1.00;;;9.10;99.90;;;;;;5046270;28;20178;-96
2021/11/07 05:08:18;;;;;;;2.00;1.30;;;9.10;99.90;;;;;;5045010;28;20239;-96
2021/11/07 05:10:43;;;;;;;1.10;1.00;;;9.10;99.90;;;;;;5043425;28;20616;-96
2021/11/07 05:13:10;;;;;;;1.40;1.10;;;9.20;99.90;;;;;;5041630;28;20173;-96
2021/11/07 05:15:36;;;;;;;3.23;1.30;;;9.10;99.90;;;;;;5040857;28;20631;-96
2021/11/07 05:18:02;;;;;;;2.40;1.37;;;9.10;99.90;;;;;;5025820;28;20226;-96
2021/11/07 05:20:36;;;;;;;2.23;1.40;;;9.10;99.90;;;;;;5040972;28;20177;-96
2021/11/07 05:23:02;;;;;;;1.70;1.60;;;9.10;99.90;;;;;;5043833;28;20166;-96
2021/11/07 05:25:29;;;;;;;1.43;1.33;;;9.10;99.90;;;;;;5041040;28;20181;-95
2021/11/07 05:27:55;;;;;;;2.20;1.83;;;9.10;99.90;;;;;;5040884;28;20572;-96
2021/11/07 05:30:27;;;;;;;2.13;1.70;;;9.10;99.90;;;;;;5040091;28;20216;-96
2021/11/07 05:32:53;;;;;;;2.30;2.10;;;9.00;99.90;;;;;;5041615;28;20189;-96
2021/11/07 05:43:21;;;;;;;;;;;;;;;;;;;;;
2021/11/07 05:48:53;;;;;;;3.17;2.40;;;9.10;99.90;;;;;;5091520;23;20217;-96
2021/11/07 05:51:58;;;;;;;4.37;3.00;;;9.10;99.90;;;;;;5269796;23;20213;-96
2021/11/07 05:54:36;;;;;;;3.03;2.77;;;9.10;99.90;;;;;;5373669;22;20266;-96
2021/11/07 06:03:16;;;;;;;;;;;;;;;;;;;;;
2021/11/07 06:26:57;;;;;;;6.13;2.70;;;9.10;99.90;;;;;;5065175;23;20221;-96
2021/11/07 06:41:05;;;;;;;3.23;2.43;;;9.10;99.90;;;;;;5067047;28;20260;-96
2021/11/07 06:44:04;;;;;;;4.57;2.83;;;9.20;99.90;;;;;;5054205;28;20181;-96
2021/11/07 06:47:07;;;;;;;;;;;;;;;;;;;;;
2021/11/07 06:49:54;;;;;;;;;;;;;;;;;;;;;
2021/11/07 06:52:36;;;;;;;4.17;3.03;;;9.20;99.90;;;;;;5050516;28;20217;-96
2021/11/07 07:36:59;;;;;;;5.50;2.27;;;9.30;99.90;;;;;;5258835;23;20245;-96
2021/11/07 07:39:33;;;;;;;8.63;2.90;;;9.40;99.90;;;;;;5026417;28;20174;-96
2021/11/07 07:42:18;;;;;;;9.07;2.40;;;9.40;99.90;;;;;;5040431;28;20228;-96
2021/11/07 07:44:48;;;;;;;7.60;2.57;;;9.40;99.90;;;;;;5050218;28;20190;-96
2021/11/07 07:47:14;;;;;;;8.10;2.93;;;9.40;99.90;;;;;;5040580;28;20179;-96
2021/11/07 07:49:41;;;;;;;12.70;3.10;;;9.50;99.90;;;;;;5048793;28;20209;-96
2021/11/07 07:52:26;;;;;;;10.13;2.53;;;9.50;99.90;;;;;;5041427;28;20201;-96
2021/11/07 07:54:56;;;;;;;11.13;2.53;;;9.50;99.90;;;;;;5038330;28;20503;-96
2021/11/07 07:57:25;;;;;;;9.83;2.60;;;9.50;99.90;;;;;;5025331;28;20213;-96
2021/11/07 07:59:52;;;;;;;7.77;2.70;;;9.60;99.90;;;;;;5041547;28;20177;-96
2021/11/07 08:02:20;;;;;;;11.27;3.00;;;9.50;99.90;;;;;;5042470;28;20174;-96
2021/11/07 08:04:46;;;;;;;14.17;3.67;;;9.50;99.90;;;;;;5024694;28;20529;-96
2021/11/07 08:07:12;;;;;;;13.00;2.57;;;9.50;99.90;;;;;;5041729;28;20185;-96
2021/11/07 08:09:39;;;;;;;10.73;2.83;;;9.50;99.90;;;;;;5042168;28;20686;-96
2021/11/07 08:12:12;;;;;;;10.20;2.67;;;9.40;99.90;;;;;;5027232;28;20178;-96
2021/11/07 08:14:38;;;;;;;10.37;2.90;;;9.50;99.90;;;;;;5043588;28;20174;-96
2021/11/07 08:17:06;;;;;;;9.60;2.60;;;9.50;99.90;;;;;;5027883;28;20181;-96
2021/11/07 08:19:35;;;;;;;15.67;2.33;;;9.60;99.90;;;;;;5046171;28;20621;-96
2021/11/07 08:22:03;;;;;;;9.20;2.47;;;9.60;99.90;;;;;;5043307;28;20620;-95
2021/11/07 08:24:29;;;;;;;7.27;2.90;;;9.60;99.90;;;;;;5044024;28;20171;-94
2021/11/07 08:26:55;;;;;;;9.53;2.60;;;9.60;99.90;;;;;;5044667;28;20178;-96
2021/11/07 08:29:24;;;;;;;8.43;2.37;;;9.70;99.90;;;;;;5045102;28;20255;-96
2021/11/07 08:31:56;;;;;;;13.27;2.50;;;9.70;99.90;;;;;;5065415;23;20234;-96
2021/11/07 08:34:26;;;;;;;8.90;2.37;;;9.70;99.90;;;;;;5039818;28;20179;-94
2021/11/07 08:39:27;;;;;;;8.07;2.10;;;9.80;99.90;;;;;;5059631;28;20239;-96
2021/11/07 08:42:15;;;;;;;11.90;2.00;;;9.80;99.90;;;;;;5037359;28;20185;-96
2021/11/07 09:04:21;;;;;;;7.03;2.30;;;9.90;99.90;;;;;;5059592;28;20166;-96
2021/11/07 09:07:11;;;;;;;8.13;2.30;;;10.00;99.90;;;;;;5041238;28;20186;-96
2021/11/07 09:09:42;;;;;;;10.80;2.47;;;9.90;99.90;;;;;;5043497;28;20308;-96
2021/11/07 09:12:27;;;;;;;11.70;2.70;;;10.10;99.90;;;;;;5047233;28;20209;-96
2021/11/07 09:15:54;;;;;;;14.23;3.20;;;10.10;99.90;;;;;;5046906;28;20280;-96
2021/11/07 09:18:58;;;;;;;12.73;2.80;;;10.10;99.90;;;;;;4987048;28;20257;-96
2021/11/07 09:21:38;;;;;;;8.87;2.63;;;10.00;99.90;;;;;;5020972;28;20178;-96
2021/11/07 09:24:12;;;;;;;13.67;3.90;;;10.00;99.90;;;;;;5021015;28;20511;-96
2021/11/07 09:26:46;;;;;;;14.50;4.47;;;10.10;99.90;;;;;;5075518;23;20237;-95
2021/11/07 09:34:49;;;;;;;9.20;2.78;;;10.40;99.90;;;;;;5057082;28;20166;-96
2021/11/07 09:38:03;;;;;;;8.23;2.30;;;10.40;99.90;;;;;;5038835;28;20231;-96
2021/11/07 09:40:05;;;;;;;11.40;3.43;;;10.40;99.90;;;;;;5046308;28;20223;-96
2021/11/07 09:42:42;;;;;;;14.63;3.00;;;10.30;99.90;;;;;;5041815;28;20517;-96
2021/11/07 09:45:19;;;;;;;11.03;2.50;;;10.40;99.90;;;;;;5041872;28;20188;-95
2021/11/07 09:47:54;;;;;;;13.47;3.23;;;10.40;99.90;;;;;;5040823;28;20600;-96
2021/11/07 09:50:20;;;;;;;8.43;2.72;;;10.50;99.90;;;;;;5042094;28;20209;-96
2021/11/07 09:52:55;;;;;;;12.95;2.88;;;10.60;99.90;;;;;;5041229;28;20205;-95
2021/11/07 09:55:27;;;;;;;13.75;2.63;;;10.70;99.90;;;;;;5039425;28;20174;-96
2021/11/07 09:58:03;;;;;;;16.37;3.10;;;10.80;99.90;;;;;;5045632;28;20184;-96
2021/11/07 10:00:51;;;;;;;9.17;2.73;;;10.90;99.90;;;;;;5036157;28;20182;-95
2021/11/07 10:03:28;;;;;;;9.27;2.50;;;11.00;99.90;;;;;;5043028;28;20178;-95
2021/11/07 10:06:03;;;;;;;9.65;2.53;;;10.90;99.90;;;;;;5041986;28;20190;-95
2021/11/07 10:08:43;;;;;;;15.00;3.25;;;11.00;99.90;;;;;;5040343;28;20212;-96
2021/11/07 10:11:13;;;;;;;13.75;3.05;;;11.00;99.90;;;;;;5008496;28;20182;-96
2021/11/07 10:14:19;;;;;;;10.27;2.65;;;10.90;99.90;;;;;;5058146;28;20515;-96
2021/11/07 10:16:52;;;;;;;15.32;2.38;;;10.90;99.90;;;;;;5040041;28;20216;-96
2021/11/07 10:21:54;;;;;;;14.40;2.90;;;10.90;99.90;;;;;;5040747;28;20170;-96
2021/11/07 10:24:38;;;;;;;10.27;2.63;;;11.00;99.90;;;;;;5056701;28;20596;-94
2021/11/07 10:27:09;;;;;;;10.30;2.50;;;10.90;99.90;;;;;;5038746;28;20192;-95
2021/11/07 10:30:00;;;;;;;16.33;3.00;;;10.80;99.90;;;;;;5038178;28;20286;-95
2021/11/07 10:32:34;;;;;;;12.07;3.75;;;10.80;99.90;;;;;;5038444;28;20672;-96
2021/11/07 10:45:30;;;;;;;15.93;3.40;;;11.50;99.90;;;;;;5061850;28;20164;-96
2021/11/07 10:48:25;;;;;;;15.02;3.00;;;11.40;99.90;;;;;;5045272;28;20607;-96
2021/11/07 10:53:57;;;;;;;13.52;2.80;;;11.70;99.90;;;;;;5037565;28;20205;-96
2021/11/07 10:56:25;;;;;;;11.13;2.75;;;11.60;99.90;;;;;;5020535;28;20181;-96
2021/11/07 10:58:51;;;;;;;15.93;3.80;;;11.50;99.90;;;;;;5021371;28;20515;-96
2021/11/07 11:01:22;;;;;;;12.38;3.00;;;11.50;99.90;;;;;;5023022;28;20179;-94
2021/11/07 11:03:59;;;;;;;7.78;2.30;;;11.60;99.90;;;;;;5018051;28;20263;-95
2021/11/07 11:06:25;;;;;;;13.65;3.55;;;11.50;99.90;;;;;;5017682;28;20261;-96
2021/11/07 11:09:01;;;;;;;13.90;2.78;;;11.50;99.90;;;;;;5017759;28;20633;-96
2021/11/07 11:11:36;;;;;;;12.82;2.97;;;11.30;99.90;;;;;;5018186;28;20170;-95
2021/11/07 11:14:38;;;;;;;7.57;2.78;;;11.20;99.90;;;;;;5017680;28;20182;-95
2021/11/07 11:17:10;;;;;;;15.20;3.17;;;11.10;99.90;;;;;;5033461;28;20181;-94
2021/11/07 11:19:55;;;;;;;12.00;2.75;;;10.90;99.90;;;;;;5037682;28;20612;-95
2021/11/07 11:25:35;;;;;;;11.40;2.58;;;10.70;99.90;;;;;;5055306;28;20185;-95
2021/11/07 11:28:49;;;;;;;17.98;2.80;;;10.50;99.90;;;;;;5037339;28;20184;-94
2021/11/07 11:38:44;;;;;;;16.92;3.75;;;11.00;99.90;;;;;;5058737;28;20180;-94
2021/11/07 11:41:57;;;;;;;15.38;3.88;;;11.10;99.90;;;;;;5041039;28;20592;-94
2021/11/07 11:44:04;;;;;;;14.88;3.17;;;11.40;99.90;;;;;;5029929;28;20202;-94
2021/11/07 11:46:42;;;;;;;13.95;2.85;;;11.50;99.90;;;;;;5038176;28;20244;-94
2021/11/07 11:49:40;;;;;;;10.90;2.63;;;11.60;99.90;;;;;;5037312;28;20218;-93
2021/11/07 11:52:26;;;;;;;14.73;3.15;;;11.50;99.90;;;;;;5038200;28;20214;-94
2021/11/07 11:55:05;;;;;;;21.83;3.63;;;11.40;99.90;;;;;;5037321;28;20214;-93
2021/11/07 11:58:08;;;;;;;14.40;2.88;;;11.40;99.90;;;;;;5037132;28;20170;-94
2021/11/07 12:03:39;;;;;;;16.75;2.78;;;11.30;99.90;;;;;;5038310;28;20224;-93
2021/11/07 12:06:22;;;;;;;19.38;3.13;;;11.30;99.90;;;;;;5020283;28;20189;-94
2021/11/07 12:09:10;;;;;;;13.27;2.80;;;11.40;99.90;;;;;;5020415;28;20206;-93
2021/11/07 12:11:47;;;;;;;12.45;3.08;;;11.40;99.90;;;;;;5039985;28;20645;-95
2021/11/07 12:14:25;;;;;;;13.32;2.92;;;11.50;99.90;;;;;;5032488;28;20190;-93
2021/11/07 12:17:01;;;;;;;12.85;2.75;;;11.60;99.90;;;;;;5049162;28;20850;-94
2021/11/07 12:19:42;;;;;;;9.55;2.70;;;11.70;99.90;;;;;;5040132;28;20173;-93
2021/11/07 12:22:16;;;;;;;17.23;3.50;;;11.90;99.90;;;;;;5040559;28;20281;-94
2021/11/07 12:24:53;;;;;;;12.85;2.90;;;12.00;99.90;;;;;;5040092;28;20177;-94
2021/11/07 12:27:22;;;;;;;15.13;3.03;;;12.20;99.90;;;;;;5040194;28;20201;-94
2021/11/07 12:29:56;;;;;;;14.07;3.25;;;12.30;99.90;;;;;;5040481;28;20644;-94
2021/11/07 12:32:24;;;;;;;10.40;2.40;;;12.40;99.90;;;;;;5036445;28;20237;-94
2021/11/07 12:35:40;;;;;;;13.98;3.03;;;12.40;99.90;;;;;;5039794;28;20186;-95
2021/11/07 12:41:17;;;;;;;13.57;2.97;;;12.20;99.90;;;;;;5057496;28;20691;-94
2021/11/07 12:44:04;;;;;;;17.45;3.33;;;12.20;99.90;;;;;;5039682;28;20177;-94
2021/11/07 12:46:42;;;;;;;11.23;2.40;;;12.20;99.90;;;;;;5039790;28;20223;-94
2021/11/07 12:49:14;;;;;;;13.30;3.10;;;12.10;99.90;;;;;;5039766;28;20266;-94
2021/11/07 12:51:44;;;;;;;14.30;3.25;;;12.10;99.90;;;;;;5039698;28;20228;-93
2021/11/07 12:54:27;;;;;;;16.83;2.90;;;12.00;99.90;;;;;;5039391;28;20170;-93
2021/11/07 12:57:02;;;;;;;14.05;2.72;;;11.90;99.90;;;;;;5039467;28;20163;-94
2021/11/07 12:59:47;;;;;;;15.93;3.00;;;11.80;99.90;;;;;;5039432;28;20166;-94
2021/11/07 13:02:19;;;;;;;15.13;2.80;;;11.80;99.90;;;;;;5039170;28;20189;-95
2021/11/07 13:05:01;;;;;;;14.18;3.22;;;11.70;99.90;;;;;;5039313;28;20209;-94
2021/11/07 13:07:46;;;;;;;12.68;2.40;;;11.60;99.90;;;;;;5039378;28;20169;-95
2021/11/07 13:10:23;;;;;;;10.18;2.13;;;11.40;99.90;;;;;;5039599;28;20256;-94
2021/11/07 13:12:58;;;;;;;16.20;2.90;;;11.30;99.90;;;;;;5039485;28;20174;-94
2021/11/07 13:15:39;;;;;;;14.95;3.00;;;11.20;99.90;;;;;;5038945;28;20173;-93
2021/11/07 13:21:11;;;;;;;13.07;2.72;;;11.00;99.90;;;;;;5056723;28;20536;-93
2021/11/07 13:24:54;;;;;;;8.43;2.03;;;11.00;99.90;;;;;;5038929;28;20174;-95
2021/11/07 13:27:26;;;;;;;10.35;2.15;;;11.20;99.90;;;;;;5056939;28;20181;-93
2021/11/07 13:32:36;;;;;;;10.27;2.30;;;11.50;99.90;;;;;;5056376;28;20218;-94
2021/11/07 13:35:24;;;;;;;12.00;2.53;;;11.50;99.90;;;;;;5039565;28;20182;-96
2021/11/07 13:37:57;;;;;;;16.20;2.33;;;11.60;99.90;;;;;;5040611;28;20170;-96
2021/11/07 13:40:32;;;;;;;9.10;1.88;;;11.50;99.90;;;;;;5039601;28;20177;-96
2021/11/07 13:43:08;;;;;;;10.10;2.00;;;11.60;99.90;;;;;;5039215;28;20169;-96
2021/11/07 13:45:44;;;;;;;9.15;2.15;;;11.60;99.90;;;;;;5038713;28;20173;-96
2021/11/07 13:48:21;;;;;;;14.95;2.20;;;11.70;99.90;;;;;;5038901;28;20166;-96
2021/11/07 13:51:00;;;;;;;13.55;2.47;;;11.70;99.90;;;;;;5039677;28;20257;-96
2021/11/07 13:53:29;;;;;;;10.48;2.25;;;11.70;99.90;;;;;;5040186;28;20166;-96
2021/11/07 13:56:04;;;;;;;10.80;2.17;;;11.70;99.90;;;;;;5040201;28;20186;-96
2021/11/07 13:58:35;;;;;;;12.43;2.83;;;11.70;99.90;;;;;;5040042;28;20228;-95
2021/11/07 14:01:06;;;;;;;11.57;2.63;;;11.60;99.90;;;;;;5038360;28;20170;-96
2021/11/07 14:03:32;;;;;;;8.95;2.00;;;11.60;99.90;;;;;;5038467;28;20502;-96
2021/11/07 14:06:17;;;;;;;9.95;2.10;;;11.60;99.90;;;;;;5038234;28;20180;-96
2021/11/07 14:08:46;;;;;;;11.45;2.50;;;11.40;99.90;;;;;;5038064;28;20202;-96
2021/11/07 14:11:18;;;;;;;13.88;2.47;;;11.40;99.90;;;;;;5038345;28;20186;-95
2021/11/07 14:13:46;;;;;;;11.57;2.70;;;11.30;99.90;;;;;;5038288;28;20232;-96
2021/11/07 14:16:16;;;;;;;9.80;3.17;;;11.30;99.90;;;;;;5031543;28;20185;-96
2021/11/07 14:18:45;;;;;;;11.27;2.13;;;11.30;99.90;;;;;;5018649;28;20178;-96
2021/11/07 14:21:14;;;;;;;14.85;2.85;;;11.30;99.90;;;;;;5018858;28;20181;-95
2021/11/07 14:23:52;;;;;;;9.60;2.28;;;11.20;99.90;;;;;;5026084;28;20497;-96
2021/11/07 14:29:38;;;;;;;11.25;3.13;;;11.30;99.90;;;;;;5057764;28;20201;-96
2021/11/07 14:35:26;;;;;;;11.85;2.42;;;11.10;99.90;;;;;;5065567;28;20164;-96
2021/11/07 14:45:52;;;;;;;10.90;1.87;;;10.10;99.90;;;;;;5045811;28;20174;-96
2021/11/07 15:00:58;;;;;;;9.63;2.33;;;9.50;99.90;;;;;;5024223;28;20194;-96
2021/11/07 15:03:30;;;;;;;14.37;2.50;;;9.50;99.90;;;;;;5028126;28;20232;-96
2021/11/07 15:36:07;;;;;;;8.63;2.20;;;9.20;99.90;;;;;;5043901;28;20230;-96
2021/11/07 15:38:34;;;;;;;6.93;1.80;;;9.10;99.90;;;;;;5029760;28;20185;-96
2021/11/07 15:41:07;;;;;;;8.23;2.47;;;9.10;99.90;;;;;;5021338;28;20178;-96
2021/11/07 15:43:33;;;;;;;11.23;2.47;;;9.00;99.90;;;;;;5021025;28;20189;-96
2021/11/07 15:46:16;;;;;;;10.80;2.03;;;9.00;99.90;;;;;;5028824;28;20262;-96
2021/11/07 15:48:48;;;;;;;8.10;2.20;;;9.00;99.90;;;;;;5025550;28;20202;-96
2021/11/07 15:51:39;;;;;;;8.97;2.10;;;9.00;99.90;;;;;;5023385;28;20244;-96
2021/11/07 15:54:22;;;;;;;8.17;2.03;;;8.90;99.90;;;;;;5020934;28;20270;-96
2021/11/07 15:57:37;;;;;;;9.17;1.90;;;8.90;99.90;;;;;;5021007;28;20232;-95
2021/11/07 16:02:15;;;;;;;9.60;2.07;;;9.00;99.90;;;;;;5038263;28;20163;-96
2021/11/07 16:05:28;;;;;;;14.80;2.10;;;8.90;99.90;;;;;;5020587;28;20170;-96
2021/11/07 16:07:55;;;;;;;8.87;1.77;;;8.90;99.90;;;;;;5029893;28;20205;-96
2021/11/07 16:10:25;;;;;;;14.50;2.20;;;8.80;99.90;;;;;;5037408;28;20556;-96
2021/11/07 16:13:02;;;;;;;10.83;1.87;;;8.80;99.90;;;;;;5020422;28;20175;-96
2021/11/07 16:15:51;;;;;;;15.73;2.60;;;8.80;99.90;;;;;;5019960;28;20217;-96
2021/11/07 16:18:17;;;;;;;11.40;1.90;;;8.70;99.90;;;;;;5037034;28;20613;-96
2021/11/07 16:20:44;;;;;;;7.20;1.87;;;8.60;99.90;;;;;;5020708;28;20622;-96
2021/11/07 16:23:15;;;;;;;11.70;1.90;;;8.60;99.90;;;;;;5020644;28;20179;-95
2021/11/07 16:25:47;;;;;;;10.07;1.93;;;8.60;99.90;;;;;;5020538;28;20233;-96
2021/11/07 16:28:18;;;;;;;10.27;2.33;;;8.50;99.90;;;;;;5038321;28;20159;-95
2021/11/07 16:30:44;;;;;;;11.07;2.13;;;8.50;99.90;;;;;;5020456;28;20269;-96
2021/11/07 16:33:20;;;;;;;11.73;2.30;;;8.50;99.90;;;;;;5020263;28;20201;-95
2021/11/07 16:36:13;;;;;;;11.00;1.80;;;8.50;99.90;;;;;;5019900;28;20254;-95
2021/11/07 16:38:51;;;;;;;10.57;2.47;;;8.40;99.90;;;;;;5036963;28;20186;-95
2021/11/07 16:43:57;;;;;;;11.77;2.43;;;8.30;99.90;;;;;;5037501;28;20250;-96
2021/11/07 16:47:08;;;;;;;7.87;1.83;;;8.30;99.90;;;;;;5019997;28;20923;-95
2021/11/07 16:49:32;;;;;;;9.13;1.90;;;8.30;99.90;;;;;;5037353;28;20214;-95
2021/11/07 16:52:08;;;;;;;10.97;2.30;;;8.20;99.90;;;;;;5020178;28;20174;-96
2021/11/07 16:54:38;;;;;;;5.80;1.97;;;8.20;99.90;;;;;;5020194;28;20178;-96
2021/11/07 16:57:14;;;;;;;9.83;2.03;;;8.20;99.90;;;;;;5020253;28;20265;-96
2021/11/07 17:02:29;;;;;;;8.20;2.10;;;8.20;99.90;;;;;;5037562;28;20174;-96
2021/11/07 17:10:06;;;;;;;9.10;2.27;;;8.20;99.90;;;;;;5037659;28;20214;-96
2021/11/07 17:12:35;;;;;;;8.13;1.77;;;8.20;99.90;;;;;;5019722;28;20598;-96
2021/11/07 17:15:06;;;;;;;10.20;2.10;;;8.20;99.90;;;;;;5019593;28;20183;-96
2021/11/07 17:20:12;;;;;;;10.73;2.50;;;8.20;99.90;;;;;;5037477;28;20212;-96
2021/11/07 17:25:31;;;;;;;7.13;1.80;;;8.10;99.90;;;;;;5037200;28;20171;-96
2021/11/07 17:28:21;;;;;;;14.40;2.80;;;8.10;99.90;;;;;;5020117;28;20167;-96
2021/11/07 17:30:54;;;;;;;10.73;1.87;;;8.10;99.90;;;;;;5020373;28;20217;-96
2021/11/07 17:36:09;;;;;;;6.03;1.90;;;8.10;99.90;;;;;;5017473;28;20214;-96
2021/11/07 17:41:26;;;;;;;9.53;1.47;;;8.00;99.90;;;;;;5018653;28;20217;-96
2021/11/07 17:57:07;;;;;;;9.10;2.23;;;8.00;99.90;;;;;;5016929;28;20618;-96
2021/11/07 17:59:34;;;;;;;6.57;2.23;;;7.90;99.90;;;;;;4999808;28;20167;-96
2021/11/07 18:02:00;;;;;;;11.53;2.30;;;8.00;99.90;;;;;;4999295;28;20467;-96
2021/11/07 18:04:27;;;;;;;10.37;2.13;;;7.90;99.90;;;;;;4999313;28;20175;-96
2021/11/07 18:10:20;;;;;;;8.77;2.30;;;7.80;99.90;;;;;;4937367;29;20214;-95
2021/11/07 18:12:50;;;;;;;13.77;2.53;;;7.80;99.90;;;;;;4983981;28;20182;-96
2021/11/07 18:15:17;;;;;;;13.57;2.50;;;7.80;99.90;;;;;;4999022;28;20229;-96
2021/11/07 18:17:50;;;;;;;13.53;2.50;;;7.80;99.90;;;;;;4999049;28;20183;-96
2021/11/07 18:20:17;;;;;;;10.97;2.33;;;7.80;99.90;;;;;;4999254;28;20175;-96
2021/11/07 18:22:49;;;;;;;13.50;2.93;;;7.80;99.90;;;;;;4999115;28;20232;-96
2021/11/07 18:25:23;;;;;;;13.43;2.30;;;7.70;99.90;;;;;;4999053;28;20178;-96
2021/11/07 18:27:56;;;;;;;10.43;2.50;;;7.70;99.90;;;;;;4999540;28;20194;-96
2021/11/07 18:30:24;;;;;;;9.83;2.27;;;7.80;99.90;;;;;;4998904;28;20592;-96
2021/11/07 18:32:51;;;;;;;11.43;2.47;;;7.80;99.90;;;;;;4999091;28;20172;-96
2021/11/07 18:35:17;;;;;;;13.20;2.67;;;7.70;99.90;;;;;;4998708;28;20227;-96
2021/11/07 18:37:56;;;;;;;10.03;2.37;;;7.70;99.90;;;;;;4999248;28;20175;-96
2021/11/07 18:40:22;;;;;;;14.57;3.00;;;7.70;99.90;;;;;;4998746;28;20523;-96
2021/11/07 18:42:51;;;;;;;17.20;3.50;;;7.80;99.90;;;;;;4998910;28;20183;-96
2021/11/07 18:45:19;;;;;;;11.87;2.97;;;7.80;99.90;;;;;;4999438;28;20234;-96